Tropical Cyclones
[Index]
Main Index Home Page Stock Weather Photos Extreme Storms Discussion Storm News and Storm Chasing Reports Tropical Cyclones / Hurricanes / Typhoons Weather Data and Links Wild Fires / Bushfires Weather Observation Techniques Weather Picture Catalogue Tornado Pictures and Reports Stock Video Footage and DVDs for sale
Season 2003-2004 Tropical Cyclone 200421 Track Map
Season 2003-2004 Summaries: [BoM-AU] [JTWC-AU] [JTWC-SIO] [JTWC-SPAC] [JTWC-SH]
<<- Previous TC | JTWC 2003-2004 Season | Next TC ->>

click for intensity scale information  Lat/long Grid: Show Hide

 Date Labels: Show Hide

Joint Typhoon Warning Centre Cyclone Data

Name: 200421

23 Mar 2004 06:00 UTC to 28 Mar 2004 12:00 UTC

    date/time    lat    long     hPa   cat  kts
2004-03-23 06    8.4    55.8    1004         20          
2004-03-23 12    8.5    55.9    1002         25          
2004-03-23 18    8.6    56.0    1002         25          
2004-03-24 00    8.7    56.1    1002         25          
2004-03-24 06    9.1    56.0    1002         25          
2004-03-24 12    9.6    55.7    1002         25          
2004-03-24 18   10.2    55.3    1002         25          
2004-03-25 00   10.0    54.7    1002         25          
2004-03-25 06    9.7    54.2    1002         25          
2004-03-25 12    9.4    54.1    1002         25          
2004-03-25 18    9.1    54.1    1002         25          
2004-03-26 00    9.0    54.0    1002         25          
2004-03-26 06    9.2    53.8    1002         25          
2004-03-26 12    9.5    53.6    1002         25          
2004-03-26 18    9.8    53.4    1002         25          
2004-03-27 00    9.9    53.1    1002         25          
2004-03-27 06    9.9    52.8    1002         25          
2004-03-27 12   10.1    52.4    1002         25          
2004-03-27 18   10.3    52.0    1002         25          
2004-03-28 00   10.2    51.6    1002         25          
2004-03-28 06    9.8    51.5    1002         25          
2004-03-28 12    9.2    51.4    1002         25          
Winds are 1-min average.

Tropical cyclone tracks developed by Michael Bath using data from the Joint Typhoon Warning Centre Best Tracks and Google Maps.


[Australian Severe Weather index] [Copyright Notice] [Email Contacts] [Search This Site] [Privacy Policy]
Document: tropical_cyclone_200421.htm Updated: 28 June 2017